createdAt,value
2022-12-01T00:03:44.267Z,8.00
2022-12-01T00:09:09.600Z,5.86
2022-12-01T00:14:12.903Z,4.58
2022-12-01T00:19:16.242Z,3.89
2022-12-01T00:24:19.423Z,3.44
2022-12-01T00:29:22.548Z,4.55
2022-12-01T00:34:26.564Z,7.86
2022-12-01T00:39:29.773Z,8.37
2022-12-01T00:44:32.872Z,6.16
2022-12-01T00:49:35.978Z,4.80
2022-12-01T00:54:39.800Z,3.97
2022-12-01T00:59:43.013Z,3.48
2022-12-01T01:04:46.225Z,5.75
2022-12-01T01:09:49.644Z,8.18
2022-12-01T01:14:52.984Z,6.74
2022-12-01T01:19:56.364Z,4.86
2022-12-01T01:24:59.496Z,4.38
2022-12-01T01:30:02.668Z,7.29
2022-12-01T01:35:06.708Z,8.91
2022-12-01T01:40:11.045Z,7.13
2022-12-01T01:45:23.592Z,5.21
2022-12-01T01:50:29.125Z,4.85
2022-12-01T01:55:35.410Z,7.83
2022-12-01T02:00:42.375Z,8.53
2022-12-01T02:05:46.634Z,6.38
2022-12-01T02:11:15.347Z,5.07
2022-12-01T02:17:41.829Z,4.25
2022-12-01T02:23:07.148Z,3.56
2022-12-01T02:29:07.686Z,3.18
2022-12-01T02:34:21.972Z,2.93
2022-12-01T02:40:03.763Z,2.79
2022-12-01T02:45:17.741Z,2.65
2022-12-01T02:50:24.332Z,2.55
2022-12-01T02:55:27.516Z,2.48
2022-12-01T03:00:31.475Z,3.62
2022-12-01T03:06:06.301Z,7.29
2022-12-01T03:11:27.266Z,9.40
2022-12-01T03:16:52.440Z,7.94
2022-12-01T03:22:10.796Z,5.89
2022-12-01T03:27:21.919Z,4.75
2022-12-01T03:32:37.090Z,3.96
2022-12-01T03:37:47.262Z,3.37
2022-12-01T03:42:59.690Z,2.95
2022-12-01T03:48:03.448Z,2.68
2022-12-01T03:53:07.032Z,2.45
2022-12-01T03:58:30.909Z,2.30
2022-12-01T04:03:34.947Z,3.71
2022-12-01T04:08:39.181Z,7.43
2022-12-01T04:13:42.283Z,9.24
2022-12-01T04:18:45.503Z,8.98
2022-12-01T04:24:00.887Z,6.51
2022-12-01T04:29:09.551Z,4.95
2022-12-01T04:34:12.626Z,3.94
2022-12-01T04:39:15.880Z,3.27
2022-12-01T04:44:19.261Z,2.89
2022-12-01T04:49:22.806Z,2.65
2022-12-01T04:54:26.192Z,2.47
2022-12-01T04:59:29.294Z,3.56
2022-12-01T05:04:34.261Z,7.02
2022-12-01T05:09:37.649Z,9.08
2022-12-01T05:14:40.662Z,9.07
2022-12-01T05:20:02.418Z,6.77
2022-12-01T05:25:08.480Z,5.19
2022-12-01T05:30:12.707Z,4.28
2022-12-01T05:35:16.014Z,3.64
2022-12-01T05:40:19.343Z,3.16
2022-12-01T05:45:22.956Z,2.84
2022-12-01T05:50:29.489Z,3.66
2022-12-01T05:55:35.814Z,6.78
2022-12-01T06:00:45.423Z,8.83
2022-12-01T06:05:49.190Z,8.99
2022-12-01T06:10:52.300Z,6.87
2022-12-01T06:16:05.535Z,5.50
2022-12-01T06:21:08.647Z,4.59
2022-12-01T06:26:11.753Z,3.91
2022-12-01T06:31:14.770Z,3.40
2022-12-01T06:36:17.971Z,3.01
2022-12-01T06:41:21.078Z,3.83
2022-12-01T06:46:24.476Z,7.10
2022-12-01T06:51:28.615Z,9.00
2022-12-01T06:56:31.727Z,9.08
2022-12-01T07:01:35.237Z,6.88
2022-12-01T07:06:38.552Z,5.48
2022-12-01T07:11:41.661Z,4.52
2022-12-01T07:16:44.917Z,3.73
2022-12-01T07:21:48.087Z,3.19
2022-12-01T07:26:51.287Z,2.89
2022-12-01T07:31:54.388Z,3.80
2022-12-01T07:36:57.494Z,7.19
2022-12-01T07:42:00.599Z,9.11
2022-12-01T07:47:04.225Z,9.33
2022-12-01T07:52:07.437Z,7.00
2022-12-01T07:57:14.457Z,5.44
2022-12-01T08:02:17.702Z,4.48
2022-12-01T08:07:21.086Z,3.89
2022-12-01T08:12:24.458Z,3.43
2022-12-01T08:17:27.568Z,3.09
2022-12-01T08:22:30.815Z,4.09
2022-12-01T08:27:35.468Z,7.47
2022-12-01T08:32:38.572Z,9.58
2022-12-01T08:37:41.946Z,9.52
2022-12-01T08:42:47.139Z,7.30
2022-12-01T08:47:50.605Z,5.89
2022-12-01T08:52:53.917Z,4.92
2022-12-01T08:57:57.024Z,4.18
2022-12-01T09:03:01.304Z,3.69
2022-12-01T09:08:23.920Z,3.34
2022-12-01T09:13:28.788Z,4.44
2022-12-01T09:18:32.600Z,7.55
2022-12-01T09:23:35.809Z,9.39
2022-12-01T09:28:39.110Z,9.38
2022-12-01T09:33:43.037Z,7.08
2022-12-01T09:38:46.345Z,5.63
2022-12-01T09:43:56.939Z,4.66
2022-12-01T09:49:04.190Z,4.12
2022-12-01T09:54:11.109Z,3.78
2022-12-01T09:59:22.686Z,4.62
2022-12-01T10:04:36.686Z,7.70
2022-12-01T10:09:54.748Z,9.74
2022-12-01T10:15:13.425Z,9.63
2022-12-01T10:20:16.528Z,7.36
2022-12-01T10:25:51.684Z,6.04
2022-12-01T10:31:05.078Z,5.16
2022-12-01T10:36:10.706Z,4.67
2022-12-01T10:41:18.658Z,4.32
2022-12-01T10:47:06.577Z,3.98
2022-12-01T10:52:41.939Z,5.32
2022-12-01T10:57:46.236Z,8.44
2022-12-01T11:02:49.818Z,10.03
2022-12-01T11:07:54.048Z,9.92
2022-12-01T11:13:21.036Z,7.55
2022-12-01T11:18:50.453Z,5.88
2022-12-01T11:23:56.287Z,4.87
2022-12-01T11:29:22.237Z,4.30
2022-12-01T11:34:34.616Z,3.90
2022-12-01T11:39:44.130Z,4.92
2022-12-01T11:45:13.635Z,8.28
2022-12-01T11:50:28.576Z,10.07
2022-12-01T11:55:32.856Z,9.92
2022-12-01T12:00:58.209Z,7.76
2022-12-01T12:06:39.589Z,6.31
2022-12-01T12:12:01.933Z,5.26
2022-12-01T12:18:02.204Z,4.52
2022-12-01T12:23:20.949Z,3.93
2022-12-01T12:28:23.993Z,5.10
2022-12-01T12:33:33.717Z,8.28
2022-12-01T12:38:55.460Z,10.12
2022-12-01T12:44:37.616Z,9.90
2022-12-01T12:49:57.339Z,7.52
2022-12-01T12:55:20.561Z,6.23
2022-12-01T13:00:29.925Z,5.27
2022-12-01T13:05:40.609Z,4.64
2022-12-01T13:11:03.357Z,4.16
2022-12-01T13:16:15.876Z,3.88
2022-12-01T13:21:23.663Z,6.46
2022-12-01T13:26:27.327Z,9.03
2022-12-01T13:31:51.016Z,9.91
2022-12-01T13:36:56.737Z,8.71
2022-12-01T13:42:25.939Z,6.45
2022-12-01T13:47:50.604Z,5.06
2022-12-01T13:53:31.216Z,4.24
2022-12-01T13:58:34.305Z,3.69
2022-12-01T14:03:41.460Z,5.36
2022-12-01T14:09:03.175Z,8.76
2022-12-01T14:14:09.214Z,10.51
2022-12-01T14:19:47.419Z,10.09
2022-12-01T14:24:53.425Z,7.33
2022-12-01T14:29:56.629Z,5.90
2022-12-01T14:35:05.320Z,4.89
2022-12-01T14:40:25.165Z,4.22
2022-12-01T14:45:55.507Z,3.76
2022-12-01T14:51:33.238Z,3.42
2022-12-01T14:56:37.876Z,4.92
2022-12-01T15:01:41.655Z,8.35
2022-12-01T15:06:46.189Z,10.17
2022-12-01T15:12:02.467Z,9.68
2022-12-01T15:17:09.290Z,7.08
2022-12-01T15:22:16.889Z,5.46
2022-12-01T15:27:31.121Z,4.49
2022-12-01T15:32:43.254Z,3.93
2022-12-01T15:37:47.364Z,3.57
2022-12-01T15:43:38.229Z,3.32
2022-12-01T15:48:42.417Z,4.88
2022-12-01T15:53:51.415Z,8.12
2022-12-01T15:59:20.687Z,9.88
2022-12-01T16:04:35.563Z,9.30
2022-12-01T16:09:58.729Z,6.65
2022-12-01T16:15:03.188Z,5.04
2022-12-01T16:20:23.288Z,4.05
2022-12-01T16:25:39.133Z,3.31
2022-12-01T16:30:42.377Z,4.37
2022-12-01T16:35:46.435Z,7.23
2022-12-01T16:40:57.212Z,8.46
2022-12-01T16:46:06.721Z,8.08
2022-12-01T16:51:14.605Z,5.96
2022-12-01T16:56:17.796Z,5.30
2022-12-01T17:01:21.065Z,8.02
2022-12-01T17:06:24.423Z,8.31
2022-12-01T17:11:27.634Z,6.15
2022-12-01T17:16:30.887Z,4.77
2022-12-01T17:21:34.150Z,3.95
2022-12-01T17:26:37.352Z,3.35
2022-12-01T17:31:40.618Z,3.60
2022-12-01T17:36:44.206Z,6.69
2022-12-01T17:41:47.391Z,8.74
2022-12-01T17:46:50.649Z,8.79
2022-12-01T17:51:53.974Z,6.50
2022-12-01T17:56:57.533Z,4.91
2022-12-01T18:02:00.900Z,3.93
2022-12-01T18:07:04.459Z,3.27
2022-12-01T18:12:07.922Z,2.79
2022-12-01T18:17:11.502Z,3.62
2022-12-01T18:22:14.801Z,7.05
2022-12-01T18:27:17.919Z,7.79
2022-12-01T18:32:21.321Z,5.54
2022-12-01T18:37:24.647Z,4.17
2022-12-01T18:42:27.775Z,3.28
2022-12-01T18:47:30.977Z,2.69
2022-12-01T18:52:37.779Z,2.34
2022-12-01T18:57:40.969Z,2.82
2022-12-01T19:02:44.128Z,6.47
2022-12-01T19:07:48.884Z,8.77
2022-12-01T19:12:52.215Z,8.57
2022-12-01T19:17:55.733Z,5.93
2022-12-01T19:22:59.798Z,4.33
2022-12-01T19:28:03.576Z,3.38
2022-12-01T19:33:06.787Z,2.76
2022-12-01T19:38:09.995Z,2.32
2022-12-01T19:43:13.305Z,2.00
2022-12-01T19:48:16.522Z,1.79
2022-12-01T19:53:19.724Z,3.92
2022-12-01T19:58:25.181Z,7.36
2022-12-01T20:03:28.396Z,7.94
2022-12-01T20:08:35.485Z,5.81
2022-12-01T20:13:42.334Z,4.40
2022-12-01T20:18:46.833Z,3.42
2022-12-01T20:23:59.979Z,2.73
2022-12-01T20:29:15.161Z,2.32
2022-12-01T20:34:27.151Z,2.08
2022-12-01T20:39:35.608Z,1.93
2022-12-01T20:44:40.387Z,1.84
2022-12-01T20:49:43.861Z,1.74
2022-12-01T20:54:47.113Z,1.67
2022-12-01T20:59:50.482Z,2.67
2022-12-01T21:04:57.754Z,6.39
2022-12-01T21:10:03.360Z,8.45
2022-12-01T21:15:29.605Z,8.37
2022-12-01T21:20:40.764Z,5.68
2022-12-01T21:25:44.926Z,4.19
2022-12-01T21:30:49.735Z,3.17
2022-12-01T21:35:53.090Z,2.39
2022-12-01T21:40:56.214Z,1.92
2022-12-01T21:46:14.015Z,1.61
2022-12-01T21:51:25.106Z,1.40
2022-12-01T21:56:31.953Z,1.16
2022-12-01T22:01:35.780Z,1.00
2022-12-01T22:06:44.536Z,0.89
2022-12-01T22:12:10.254Z,2.25
2022-12-01T22:17:20.605Z,6.38
2022-12-01T22:22:27.578Z,8.16
2022-12-01T22:27:38.718Z,6.65
2022-12-01T22:32:48.267Z,4.43
2022-12-01T22:38:06.722Z,3.26
2022-12-01T22:43:15.773Z,2.41
2022-12-01T22:48:29.081Z,1.78
2022-12-01T22:53:32.248Z,1.38
2022-12-01T22:58:41.244Z,1.07
2022-12-01T23:03:44.367Z,0.85
2022-12-01T23:08:47.578Z,0.79
2022-12-01T23:13:50.789Z,0.76
2022-12-01T23:18:55.435Z,0.74
2022-12-01T23:23:58.543Z,2.01
2022-12-01T23:29:01.841Z,5.93
2022-12-01T23:34:15.532Z,8.17
2022-12-01T23:39:29.182Z,7.95
2022-12-01T23:44:45.783Z,5.33
2022-12-01T23:50:07.017Z,3.63
2022-12-01T23:55:29.978Z,2.49
